Time;durP1;ratioP1;P1;durP2;ratioP2;P2;SDS_P1;SDS_P2;PMS_P1;PMS_P2;Temp;Humidity;BMP_temperature;BMP_pressure;BME280_temperature;BME280_humidity;BME280_pressure;Samples;Min_cycle;Max_cycle;Signal;HPM_P1;HPM_P2
2022/02/18 00:01:38;;;;;;;3.03;0.95;;;;;;;15.27;41.51;99436.47;4979730;28;20531;-67
2022/02/18 00:04:05;;;;;;;3.38;1.00;;;;;;;14.97;42.11;99411.75;4979791;28;20106;-68
2022/02/18 00:06:31;;;;;;;4.95;1.02;;;;;;;15.15;41.93;99392.69;4980096;28;20409;-67
2022/02/18 00:08:57;;;;;;;7.75;3.17;;;;;;;14.92;42.27;99385.34;4979706;28;20023;-68
2022/02/18 00:11:23;;;;;;;19.83;8.88;;;;;;;14.85;42.73;99363.28;4979689;28;20027;-68
2022/02/18 00:13:48;;;;;;;5.72;2.80;;;;;;;14.71;43.10;99343.84;4979791;28;20113;-68
2022/02/18 00:16:14;;;;;;;14.25;7.05;;;;;;;15.03;42.57;99324.16;4979705;28;20027;-75
2022/02/18 00:18:39;;;;;;;13.18;7.10;;;;;;;15.12;42.47;99297.16;4979637;28;20023;-67
2022/02/18 00:21:05;;;;;;;8.38;3.13;;;;;;;15.13;42.48;99277.53;4979631;28;20500;-67
2022/02/18 00:23:31;;;;;;;9.07;3.30;;;;;;;14.89;43.42;99267.09;4979587;28;20033;-69
2022/02/18 00:25:57;;;;;;;8.07;1.55;;;;;;;14.57;44.06;99242.75;4979637;28;20031;-68
2022/02/18 00:28:23;;;;;;;7.03;2.47;;;;;;;14.84;43.53;99228.91;4979468;28;20058;-68
2022/02/18 00:30:49;;;;;;;6.28;1.40;;;;;;;14.71;43.85;99222.88;4979750;28;20034;-68
2022/02/18 00:33:15;;;;;;;5.15;1.83;;;;;;;14.67;44.02;99195.38;4979595;28;20062;-67
2022/02/18 00:35:41;;;;;;;13.38;2.42;;;;;;;14.90;43.66;99203.44;4979540;28;20065;-68
2022/02/18 00:38:07;;;;;;;5.70;2.45;;;;;;;14.88;43.80;99183.75;4979553;28;20428;-78
2022/02/18 00:40:33;;;;;;;9.15;1.92;;;;;;;14.98;43.68;99174.84;4962142;28;20034;-66
2022/02/18 00:42:59;;;;;;;13.93;1.98;;;;;;;14.60;45.02;99169.78;4979687;28;20042;-66
2022/02/18 00:45:25;;;;;;;4.68;1.20;;;;;;;14.92;43.99;99137.84;4979395;28;20433;-66
2022/02/18 00:47:51;;;;;;;4.32;1.02;;;;;;;14.75;44.45;99138.50;4979649;28;20031;-67
2022/02/18 00:50:18;;;;;;;2.63;0.80;;;;;;;14.87;43.99;99115.41;4979390;28;20035;-71
2022/02/18 00:52:45;;;;;;;8.73;1.13;;;;;;;14.74;44.60;99101.19;4979375;28;20027;-73
2022/02/18 00:55:10;;;;;;;6.50;2.25;;;;;;;14.85;44.14;99073.75;4979364;28;20034;-66
2022/02/18 00:57:37;;;;;;;6.88;1.35;;;;;;;14.64;44.60;99061.41;4976306;28;20034;-66
2022/02/18 01:00:04;;;;;;;7.32;1.05;;;;;;;14.80;44.32;99035.59;4976288;28;20490;-66
2022/02/18 01:02:30;;;;;;;11.60;1.45;;;;;;;14.05;46.61;99012.97;4958814;28;20086;-66
2022/02/18 01:04:56;;;;;;;7.70;1.70;;;;;;;14.19;46.63;98991.13;4976217;28;20695;-70
2022/02/18 01:07:23;;;;;;;13.40;2.85;;;;;;;14.54;46.05;98973.38;4976219;28;20054;-68
2022/02/18 01:09:49;;;;;;;8.10;1.85;;;;;;;14.68;45.72;98951.50;4976415;28;20035;-68
2022/02/18 01:12:15;;;;;;;11.13;2.08;;;;;;;14.89;45.33;98943.38;4975990;28;20113;-68
2022/02/18 01:14:40;;;;;;;5.78;1.90;;;;;;;14.62;46.15;98931.81;4976041;28;20134;-68
2022/02/18 01:17:06;;;;;;;3.28;1.20;;;;;;;14.57;46.19;98923.16;4976000;28;20486;-68
2022/02/18 01:19:32;;;;;;;9.43;1.55;;;;;;;14.44;46.82;98884.19;4975917;28;20407;-67
2022/02/18 01:21:57;;;;;;;10.93;2.10;;;;;;;14.79;45.61;98878.09;4975839;28;20023;-68
2022/02/18 01:24:23;;;;;;;7.45;2.13;;;;;;;14.78;46.14;98843.53;4976044;28;20058;-67
2022/02/18 01:26:49;;;;;;;8.70;2.47;;;;;;;14.53;46.76;98824.19;4958505;28;20547;-68
2022/02/18 01:29:14;;;;;;;11.48;2.85;;;;;;;14.48;47.19;98807.28;4975507;28;20126;-68
2022/02/18 01:31:40;;;;;;;20.75;3.28;;;;;;;14.91;46.06;98794.50;4975963;28;20030;-67
2022/02/18 01:34:05;;;;;;;20.92;3.03;;;;;;;14.84;46.95;98778.75;4975895;28;20367;-67
2022/02/18 01:36:31;;;;;;;11.85;2.30;;;;;;;14.50;47.28;98760.97;4975642;28;20445;-67
2022/02/18 01:38:56;;;;;;;14.52;2.40;;;;;;;14.51;46.93;98774.34;4975584;28;20393;-67
2022/02/18 01:41:22;;;;;;;12.32;2.33;;;;;;;14.75;46.56;98753.59;4975440;28;20031;-68
2022/02/18 01:43:53;;;;;;;7.57;1.92;;;;;;;14.47;47.08;98748.00;4975401;28;20058;-69
2022/02/18 01:46:19;;;;;;;12.85;1.88;;;;;;;14.56;47.07;98710.75;4975831;28;20098;-68
2022/02/18 01:48:45;;;;;;;14.45;2.53;;;;;;;14.56;46.89;98697.00;4975400;28;20665;-78
2022/02/18 01:51:12;;;;;;;13.73;2.88;;;;;;;14.61;46.86;98657.38;4975401;28;20437;-67
2022/02/18 01:53:39;;;;;;;12.25;2.75;;;;;;;14.29;48.16;98622.34;4975555;28;20027;-68
2022/02/18 01:56:08;;;;;;;8.45;2.33;;;;;;;14.24;48.39;98598.00;4975249;28;20027;-68
2022/02/18 01:58:34;;;;;;;16.90;3.42;;;;;;;14.38;48.60;98580.75;4975169;28;20030;-68
2022/02/18 02:01:00;;;;;;;11.45;2.55;;;;;;;14.34;48.87;98586.22;4975322;28;20049;-68
2022/02/18 02:03:25;;;;;;;12.05;3.05;;;;;;;15.16;46.61;98585.47;4975451;28;20029;-79
2022/02/18 02:05:55;;;;;;;10.45;2.80;;;;;;;15.07;47.02;98554.84;4975176;28;20105;-68
2022/02/18 02:08:22;;;;;;;14.95;3.33;;;;;;;14.87;47.52;98538.75;4975143;28;20027;-67
2022/02/18 02:10:48;;;;;;;14.02;3.17;;;;;;;14.66;48.60;98519.53;4975313;28;20110;-67
2022/02/18 02:13:34;;;;;;;15.57;2.90;;;;;;;14.90;48.10;98509.72;4975262;28;20117;-67
2022/02/18 02:16:00;;;;;;;16.77;3.05;;;;;;;15.17;47.46;98471.50;4975034;28;20044;-68
2022/02/18 02:18:27;;;;;;;18.58;3.58;;;;;;;15.10;47.76;98469.56;4974766;28;20027;-67
2022/02/18 02:20:53;;;;;;;14.20;2.58;;;;;;;14.73;48.84;98439.03;4974833;28;20038;-67
2022/02/18 02:23:18;;;;;;;22.23;2.80;;;;;;;14.63;49.70;98437.88;4975013;28;20391;-68
2022/02/18 02:25:44;;;;;;;19.77;3.97;;;;;;;15.21;47.65;98418.06;4975218;28;20023;-68
2022/02/18 02:28:10;;;;;;;13.32;3.70;;;;;;;15.25;47.53;98402.31;4974583;28;20031;-77
2022/02/18 02:30:36;;;;;;;13.65;3.53;;;;;;;14.94;48.83;98379.28;4974423;28;20126;-67
2022/02/18 02:33:01;;;;;;;20.90;5.28;;;;;;;15.32;48.13;98373.97;4974606;28;20109;-67
2022/02/18 02:35:27;;;;;;;13.27;3.28;;;;;;;15.02;48.93;98321.50;4974530;28;20026;-68
2022/02/18 02:37:53;;;;;;;19.92;4.32;;;;;;;15.36;48.18;98307.94;4974818;28;20035;-68
2022/02/18 02:40:19;;;;;;;21.15;4.60;;;;;;;15.47;48.15;98265.38;4974425;28;20385;-71
2022/02/18 02:42:46;;;;;;;12.63;3.75;;;;;;;15.22;49.23;98254.56;4974374;28;20023;-67
2022/02/18 02:45:12;;;;;;;23.45;5.80;;;;;;;15.75;47.88;98253.38;4974433;28;20058;-67
2022/02/18 02:47:39;;;;;;;17.20;5.05;;;;;;;15.58;48.65;98245.25;4974325;28;20031;-67
2022/02/18 02:50:04;;;;;;;21.38;3.75;;;;;;;15.68;48.17;98212.16;4974295;28;20030;-67
2022/02/18 02:52:30;;;;;;;21.67;4.43;;;;;;;15.78;48.29;98210.47;4974288;28;20019;-71
2022/02/18 02:54:56;;;;;;;18.60;3.35;;;;;;;15.69;49.04;98216.47;4974297;28;20023;-68
2022/02/18 02:57:21;;;;;;;19.10;4.90;;;;;;;16.08;47.64;98204.25;4974131;28;20018;-68
2022/02/18 02:59:47;;;;;;;29.63;6.25;;;;;;;16.34;47.00;98222.06;4974019;28;20031;-67
2022/02/18 03:02:13;;;;;;;22.13;4.38;;;;;;;16.41;46.73;98199.94;4974073;28;20038;-68
2022/02/18 03:04:39;;;;;;;18.73;4.05;;;;;;;16.58;46.25;98163.06;4974037;28;20041;-68
2022/02/18 03:07:04;;;;;;;20.98;4.15;;;;;;;16.40;46.98;98148.78;4973971;28;20062;-68
2022/02/18 03:09:30;;;;;;;10.02;3.05;;;;;;;16.18;47.85;98169.53;4974246;28;20070;-68
2022/02/18 03:11:55;;;;;;;13.45;3.38;;;;;;;16.46;47.04;98198.69;4973964;28;20501;-68
2022/02/18 03:14:21;;;;;;;7.30;1.42;;;;;;;16.40;47.56;98175.53;4973850;28;20596;-68
2022/02/18 03:16:47;;;;;;;5.35;1.45;;;;;;;16.34;47.39;98147.66;4956590;28;20139;-67
2022/02/18 03:19:13;;;;;;;8.32;1.73;;;;;;;16.72;46.53;98172.38;4973818;28;20042;-70
2022/02/18 03:21:39;;;;;;;14.23;2.13;;;;;;;16.65;46.64;98157.47;4973244;28;20030;-68
2022/02/18 03:24:04;;;;;;;6.75;1.80;;;;;;;16.54;46.72;98151.31;4973747;28;20019;-68
2022/02/18 03:26:30;;;;;;;9.82;2.15;;;;;;;16.60;46.07;98148.88;4973722;28;20023;-80
2022/02/18 03:28:55;;;;;;;9.60;2.25;;;;;;;16.34;46.01;98145.69;4956169;28;20442;-68
2022/02/18 03:31:21;;;;;;;8.65;2.53;;;;;;;16.44;45.61;98135.72;4973718;28;20035;-68
2022/02/18 03:33:47;;;;;;;10.95;2.30;;;;;;;16.45;45.47;98136.50;4973708;28;20031;-67
2022/02/18 03:36:12;;;;;;;13.43;2.20;;;;;;;16.28;45.64;98135.53;4973648;28;20030;-69
2022/02/18 03:38:38;;;;;;;10.95;2.80;;;;;;;16.18;45.47;98125.44;4956239;28;20512;-68
2022/02/18 03:41:04;;;;;;;10.30;2.05;;;;;;;16.09;45.38;98120.41;4973416;28;20453;-68
2022/02/18 03:43:30;;;;;;;14.95;2.88;;;;;;;16.12;45.44;98124.34;4973784;28;20396;-75
2022/02/18 03:45:56;;;;;;;12.70;2.20;;;;;;;15.92;45.37;98111.19;4973616;28;20031;-68
2022/02/18 03:48:21;;;;;;;8.77;2.90;;;;;;;15.89;45.49;98105.75;4973534;28;20501;-72
2022/02/18 03:50:47;;;;;;;16.80;2.80;;;;;;;15.32;46.24;98098.06;4973495;28;20113;-68
2022/02/18 03:53:14;;;;;;;12.25;2.65;;;;;;;15.79;44.91;98077.13;4956089;28;20110;-68
2022/02/18 03:55:40;;;;;;;13.80;2.30;;;;;;;15.75;44.96;98068.16;4973435;28;20073;-68
2022/02/18 03:58:06;;;;;;;16.42;4.13;;;;;;;15.46;45.13;98064.91;4973509;28;20027;-67
2022/02/18 04:00:31;;;;;;;12.18;3.17;;;;;;;15.49;44.98;98064.88;4973426;28;20516;-67
2022/02/18 04:02:57;;;;;;;15.35;3.50;;;;;;;15.26;45.46;98053.72;4973278;28;20085;-67
2022/02/18 04:05:23;;;;;;;11.45;3.42;;;;;;;15.55;44.75;98057.72;4973332;28;20151;-68
2022/02/18 04:07:48;;;;;;;19.50;3.67;;;;;;;15.59;44.46;98056.91;4973256;28;20046;-75
2022/02/18 04:10:14;;;;;;;16.58;3.58;;;;;;;15.57;44.38;98051.03;4973294;28;20077;-68
2022/02/18 04:12:40;;;;;;;18.75;4.40;;;;;;;15.52;44.20;98042.03;4973274;28;20128;-67
2022/02/18 04:15:06;;;;;;;23.40;3.60;;;;;;;15.58;44.31;98044.34;4973271;28;20042;-67
2022/02/18 04:17:33;;;;;;;16.83;3.53;;;;;;;15.66;43.75;98037.59;4973500;28;20374;-67
2022/02/18 04:19:59;;;;;;;12.65;3.80;;;;;;;15.75;43.55;98027.63;4973158;28;20178;-68
2022/02/18 04:22:25;;;;;;;17.60;4.60;;;;;;;15.61;43.97;98038.81;4973161;28;20039;-68
2022/02/18 04:24:51;;;;;;;21.52;6.05;;;;;;;15.51;43.75;98034.97;4973116;28;20027;-79
2022/02/18 04:27:17;;;;;;;12.52;3.92;;;;;;;15.49;44.08;98020.06;4973215;28;20031;-68
2022/02/18 04:29:43;;;;;;;21.98;4.47;;;;;;;15.51;43.86;98029.47;4972914;28;20054;-68
2022/02/18 04:32:09;;;;;;;22.73;4.72;;;;;;;15.61;43.52;98030.56;4973738;28;20045;-68
2022/02/18 04:34:35;;;;;;;20.17;4.25;;;;;;;15.69;43.50;98025.75;4976820;28;20031;-74
2022/02/18 04:37:00;;;;;;;24.63;4.63;;;;;;;15.70;43.24;98032.81;4976748;28;20085;-78
2022/02/18 04:39:26;;;;;;;24.70;5.80;;;;;;;15.43;43.59;98025.25;4976669;28;20030;-68
2022/02/18 04:41:52;;;;;;;16.48;3.88;;;;;;;15.65;43.18;98023.06;4976639;28;20041;-68
2022/02/18 04:44:18;;;;;;;23.20;7.45;;;;;;;15.54;43.11;98027.88;4976585;28;20077;-68
2022/02/18 04:46:44;;;;;;;23.73;5.75;;;;;;;15.53;43.19;98027.09;4976588;28;20031;-67
2022/02/18 04:49:10;;;;;;;30.50;6.75;;;;;;;15.59;43.06;98026.63;4976506;28;20399;-74
2022/02/18 04:51:38;;;;;;;24.05;5.72;;;;;;;15.66;42.89;98037.59;4976510;28;20042;-79
2022/02/18 04:54:05;;;;;;;25.20;5.28;;;;;;;15.55;43.20;98023.91;4976482;28;20473;-67
2022/02/18 04:56:31;;;;;;;24.42;5.57;;;;;;;15.63;42.99;98030.16;4976417;28;20022;-67
2022/02/18 04:58:57;;;;;;;28.17;5.38;;;;;;;15.54;42.87;98023.13;4976276;28;20038;-67
2022/02/18 05:01:22;;;;;;;28.55;5.82;;;;;;;15.50;43.09;98022.41;4976283;28;20491;-68
2022/02/18 05:03:48;;;;;;;20.85;4.50;;;;;;;15.46;43.03;98031.91;4976158;28;20038;-72
2022/02/18 05:06:14;;;;;;;15.90;3.83;;;;;;;15.37;43.00;98024.13;4976150;28;20026;-68
2022/02/18 05:08:40;;;;;;;20.70;4.15;;;;;;;15.12;43.06;98023.63;4976153;28;20035;-68
2022/02/18 05:11:06;;;;;;;12.32;3.13;;;;;;;15.01;42.92;98014.69;4976125;28;20027;-68
2022/02/18 05:13:31;;;;;;;11.05;2.70;;;;;;;14.92;41.99;98026.97;4976050;28;20126;-68
2022/02/18 05:15:57;;;;;;;6.22;1.60;;;;;;;14.87;42.16;98029.34;4976095;28;20027;-68
2022/02/18 05:18:23;;;;;;;10.40;2.08;;;;;;;15.13;41.04;98027.94;4975934;28;20038;-68
2022/02/18 05:20:49;;;;;;;5.57;1.92;;;;;;;15.35;40.20;98032.03;4976014;28;20045;-68
2022/02/18 05:23:14;;;;;;;8.35;1.90;;;;;;;15.66;39.85;98035.63;4976048;28;20042;-79
2022/02/18 05:25:40;;;;;;;13.38;3.80;;;;;;;15.56;40.38;98022.72;4975832;28;20474;-67
2022/02/18 05:28:07;;;;;;;16.73;3.13;;;;;;;15.81;39.87;98014.19;4975777;28;20035;-68
2022/02/18 05:30:33;;;;;;;12.95;2.78;;;;;;;15.93;39.98;98021.88;4975563;28;20042;-74
2022/02/18 05:32:58;;;;;;;21.17;4.70;;;;;;;15.85;40.28;97997.63;4975737;28;20397;-67
2022/02/18 05:35:24;;;;;;;22.95;5.30;;;;;;;15.94;40.16;97997.88;4975687;28;20031;-68
2022/02/18 05:37:50;;;;;;;9.93;2.65;;;;;;;15.94;39.94;97973.88;4975621;28;20074;-67
2022/02/18 05:40:15;;;;;;;13.98;4.53;;;;;;;16.01;39.82;97960.00;4975571;28;20442;-68
2022/02/18 05:42:41;;;;;;;8.30;1.45;;;;;;;15.91;39.83;97925.16;4974984;28;20039;-68
2022/02/18 05:45:07;;;;;;;7.32;1.67;;;;;;;16.02;39.58;97920.28;4975789;28;20035;-68
2022/02/18 05:47:35;;;;;;;14.18;2.67;;;;;;;15.85;39.20;97890.25;4975737;28;20027;-68
2022/02/18 05:50:08;;;;;;;5.18;1.45;;;;;;;15.78;39.42;97861.63;4975405;28;20023;-68
2022/02/18 05:52:35;;;;;;;8.68;1.25;;;;;;;15.76;39.38;97830.97;4975649;28;20034;-68
2022/02/18 05:55:01;;;;;;;7.35;1.42;;;;;;;15.60;39.70;97833.56;4975347;28;20039;-68
2022/02/18 05:57:27;;;;;;;8.65;1.52;;;;;;;15.66;39.26;97837.44;4975210;28;20030;-68
2022/02/18 05:59:52;;;;;;;9.48;2.75;;;;;;;15.48;39.78;97832.16;4975317;28;20032;-78
2022/02/18 06:02:18;;;;;;;9.27;1.50;;;;;;;15.33;39.66;97835.53;4975119;28;20031;-68
2022/02/18 06:04:44;;;;;;;7.78;2.03;;;;;;;15.24;40.00;97833.31;4975175;28;20089;-79
2022/02/18 06:07:10;;;;;;;7.07;1.98;;;;;;;15.24;39.83;97817.56;4975121;28;20114;-68
2022/02/18 06:09:35;;;;;;;5.50;1.58;;;;;;;15.24;39.68;97816.78;4974980;28;20073;-68
2022/02/18 06:12:01;;;;;;;13.95;2.40;;;;;;;15.21;40.11;97829.41;4975281;28;20034;-68
2022/02/18 06:14:27;;;;;;;16.27;2.45;;;;;;;14.95;40.53;97825.44;4975292;28;20381;-68
2022/02/18 06:16:52;;;;;;;9.07;1.90;;;;;;;15.03;40.57;97828.84;4975244;28;20546;-68
2022/02/18 06:19:18;;;;;;;9.15;1.90;;;;;;;14.83;40.93;97815.00;4974849;28;20432;-68
2022/02/18 06:21:43;;;;;;;8.32;2.30;;;;;;;14.91;40.88;97813.72;4974729;28;20382;-67
2022/02/18 06:24:10;;;;;;;5.28;2.25;;;;;;;14.92;40.67;97814.50;4974711;28;20038;-68
2022/02/18 06:26:36;;;;;;;6.78;1.40;;;;;;;14.82;40.76;97818.94;4975043;28;20046;-68
2022/02/18 06:29:02;;;;;;;5.10;1.42;;;;;;;14.87;40.59;97828.69;4974535;28;20039;-68
2022/02/18 06:31:28;;;;;;;6.85;2.38;;;;;;;14.69;41.00;97815.94;4974972;28;20367;-67
2022/02/18 06:33:53;;;;;;;9.48;2.05;;;;;;;14.68;40.98;97810.88;4974612;28;20038;-68
2022/02/18 06:36:19;;;;;;;7.28;1.30;;;;;;;14.77;40.77;97810.38;4974623;28;20035;-67
2022/02/18 06:38:45;;;;;;;6.32;1.80;;;;;;;14.66;40.88;97794.78;4974534;28;20105;-69
2022/02/18 06:41:11;;;;;;;6.03;1.45;;;;;;;14.63;40.87;97787.34;4974475;28;20054;-68
2022/02/18 06:43:37;;;;;;;9.60;2.30;;;;;;;14.59;40.76;97794.09;4974331;28;20105;-68
2022/02/18 06:46:03;;;;;;;8.20;2.05;;;;;;;14.48;41.15;97787.94;4974433;28;20121;-67
2022/02/18 06:48:29;;;;;;;9.73;1.65;;;;;;;14.44;41.14;97782.47;4974690;28;20037;-67
2022/02/18 06:50:55;;;;;;;7.32;2.15;;;;;;;14.55;40.90;97788.63;4974304;28;20377;-68
2022/02/18 06:53:20;;;;;;;5.43;1.63;;;;;;;14.47;41.08;97783.63;4974623;28;20070;-68
2022/02/18 06:55:46;;;;;;;10.38;1.42;;;;;;;14.47;41.21;97781.66;4973521;28;20034;-70
2022/02/18 06:58:12;;;;;;;6.20;1.67;;;;;;;14.47;40.92;97773.41;4974167;28;20027;-68
2022/02/18 07:00:38;;;;;;;5.20;1.67;;;;;;;14.49;40.93;97764.75;4974131;28;20486;-71
2022/02/18 07:03:04;;;;;;;7.72;1.42;;;;;;;14.49;40.79;97768.28;4974036;28;20034;-68
2022/02/18 07:05:30;;;;;;;6.18;1.40;;;;;;;14.35;41.11;97763.72;4974371;28;20129;-74
2022/02/18 07:07:56;;;;;;;12.25;1.35;;;;;;;14.36;40.93;97751.56;4974030;28;20119;-67
2022/02/18 07:10:21;;;;;;;11.27;1.95;;;;;;;14.38;40.93;97742.91;4973971;28;20027;-68
2022/02/18 07:12:47;;;;;;;5.13;1.65;;;;;;;14.37;40.92;97736.63;4974380;28;20027;-67
2022/02/18 07:15:12;;;;;;;7.75;1.40;;;;;;;14.34;40.85;97723.69;4974343;28;20023;-76
2022/02/18 07:17:38;;;;;;;7.18;2.72;;;;;;;14.26;40.95;97724.19;4973766;28;20393;-69
2022/02/18 07:20:08;;;;;;;8.80;1.70;;;;;;;14.27;40.84;97718.28;4973894;28;20478;-67
2022/02/18 07:22:36;;;;;;;6.38;1.52;;;;;;;14.17;40.84;97708.22;4973782;28;20031;-73
2022/02/18 07:25:03;;;;;;;13.23;5.18;;;;;;;14.30;40.57;97698.25;4973830;28;20038;-68
2022/02/18 07:27:29;;;;;;;75.68;51.15;;;;;;;14.31;40.54;97697.06;4973736;28;20106;-67
2022/02/18 07:29:54;;;;;;;15.30;6.05;;;;;;;14.28;40.62;97697.91;4973127;28;20073;-67
2022/02/18 07:32:24;;;;;;;7.85;2.63;;;;;;;14.04;40.76;97694.22;4973665;28;20062;-67
2022/02/18 07:34:50;;;;;;;14.27;6.55;;;;;;;14.16;40.70;97690.19;4973633;28;20018;-66
2022/02/18 07:37:16;;;;;;;7.68;3.92;;;;;;;14.08;40.84;97695.00;4973834;28;20452;-67
2022/02/18 07:39:42;;;;;;;10.48;3.33;;;;;;;14.14;40.61;97678.84;4973914;28;20058;-67
2022/02/18 07:42:09;;;;;;;13.48;4.45;;;;;;;14.07;40.64;97681.69;4973762;28;20509;-67
2022/02/18 07:44:35;;;;;;;10.13;3.30;;;;;;;14.19;40.75;97678.38;4973556;28;20030;-67
2022/02/18 07:47:01;;;;;;;9.05;2.55;;;;;;;14.24;40.33;97677.94;4973770;28;20062;-67
2022/02/18 07:49:27;;;;;;;6.85;1.67;;;;;;;14.19;40.54;97678.38;4973491;28;20482;-69
2022/02/18 07:51:52;;;;;;;11.20;5.15;;;;;;;14.17;40.58;97680.75;4973250;28;20043;-68
2022/02/18 07:54:18;;;;;;;12.23;3.72;;;;;;;14.18;40.54;97682.31;4973465;28;20050;-66
2022/02/18 07:56:44;;;;;;;6.65;2.05;;;;;;;13.97;40.52;97686.06;4973621;28;20553;-67
2022/02/18 07:59:10;;;;;;;7.55;2.15;;;;;;;14.13;40.49;97686.31;4973716;28;20022;-67
2022/02/18 08:01:35;;;;;;;8.52;1.98;;;;;;;14.18;40.36;97690.56;4973360;28;20034;-67
2022/02/18 08:04:01;;;;;;;9.32;2.00;;;;;;;14.18;40.28;97681.53;4973431;28;20393;-78
2022/02/18 08:06:27;;;;;;;5.50;1.65;;;;;;;14.23;40.12;97681.09;4974685;28;20042;-79
2022/02/18 08:08:53;;;;;;;18.55;3.70;;;;;;;14.18;40.36;97676.81;4976957;28;20497;-68
2022/02/18 08:11:19;;;;;;;22.35;4.85;;;;;;;14.07;40.53;97659.72;4979428;28;20054;-68
2022/02/18 08:13:45;;;;;;;16.42;5.53;;;;;;;14.06;40.49;97672.66;4996509;28;20077;-68
2022/02/18 08:16:11;;;;;;;15.93;7.35;;;;;;;14.13;40.25;97674.53;4978168;28;20384;-67
2022/02/18 08:18:42;;;;;;;23.40;14.82;;;;;;;14.09;40.68;97668.31;4995832;28;20042;-67
2022/02/18 08:21:08;;;;;;;16.77;9.80;;;;;;;14.11;40.25;97671.41;4995351;28;20026;-69
2022/02/18 08:23:33;;;;;;;13.60;5.72;;;;;;;14.10;40.44;97667.13;4995285;28;20037;-70
2022/02/18 08:25:59;;;;;;;9.80;3.85;;;;;;;13.99;40.44;97669.22;4996573;28;20030;-67
2022/02/18 08:28:25;;;;;;;8.23;3.90;;;;;;;14.01;40.28;97683.31;4995637;28;20036;-68
2022/02/18 08:30:50;;;;;;;13.48;4.75;;;;;;;13.94;40.72;97683.38;4994309;28;20181;-69
2022/02/18 08:33:16;;;;;;;13.80;3.20;;;;;;;13.99;40.57;97682.94;4977002;28;20061;-68
2022/02/18 08:35:41;;;;;;;11.48;2.70;;;;;;;14.12;40.53;97683.94;4977045;28;20481;-68
2022/02/18 08:38:07;;;;;;;9.73;2.83;;;;;;;14.20;40.52;97685.41;4993927;28;20034;-68
2022/02/18 08:40:34;;;;;;;7.03;2.20;;;;;;;14.21;40.69;97684.25;4994357;28;20084;-77
2022/02/18 08:43:03;;;;;;;26.40;17.38;;;;;;;14.26;40.75;97703.00;4996297;28;20030;-67
2022/02/18 08:45:30;;;;;;;13.80;5.47;;;;;;;14.46;40.61;97696.91;4990819;28;20030;-68
2022/02/18 08:47:55;;;;;;;11.60;4.80;;;;;;;14.58;40.70;97704.59;4980569;28;20157;-69
2022/02/18 08:50:21;;;;;;;8.32;4.32;;;;;;;14.70;40.60;97704.03;4975345;28;20109;-67
2022/02/18 08:52:47;;;;;;;14.93;2.58;;;;;;;14.76;40.51;97702.41;4977849;28;20019;-67
2022/02/18 08:55:15;;;;;;;9.32;2.17;;;;;;;14.89;40.47;97703.38;4977564;28;20034;-73
2022/02/18 08:57:43;;;;;;;10.00;2.70;;;;;;;14.94;40.55;97707.63;4976774;28;20541;-87
2022/02/18 09:00:10;;;;;;;8.10;1.80;;;;;;;15.05;40.63;97710.22;4976283;28;20505;-76
2022/02/18 09:02:36;;;;;;;7.93;3.17;;;;;;;15.12;40.31;97708.16;4976173;28;20038;-76
2022/02/18 09:05:03;;;;;;;10.70;2.10;;;;;;;15.10;40.26;97712.50;4976162;28;20023;-76
2022/02/18 09:07:29;;;;;;;13.38;2.38;;;;;;;15.18;40.51;97724.94;4976272;28;20026;-77
2022/02/18 09:09:56;;;;;;;11.77;2.03;;;;;;;15.14;40.67;97736.00;4976207;28;20037;-77
2022/02/18 09:12:22;;;;;;;10.15;2.83;;;;;;;14.39;42.03;97737.00;4976242;28;20074;-83
2022/02/18 09:14:48;;;;;;;9.40;2.22;;;;;;;14.42;42.26;97751.84;4976117;28;20033;-77
2022/02/18 09:17:13;;;;;;;9.57;2.47;;;;;;;14.69;41.54;97771.97;4975561;28;20026;-81
2022/02/18 09:19:39;;;;;;;8.65;2.13;;;;;;;14.49;42.32;97770.25;4975553;28;20074;-79
2022/02/18 09:22:05;;;;;;;12.30;2.75;;;;;;;14.23;42.83;97782.69;4975885;28;20037;-81
2022/02/18 09:24:32;;;;;;;9.63;2.47;;;;;;;14.47;42.48;97789.13;4975937;28;20363;-78
2022/02/18 09:26:57;;;;;;;6.15;2.50;;;;;;;13.87;43.38;97814.00;4975816;28;20031;-77
2022/02/18 09:29:23;;;;;;;8.02;1.73;;;;;;;13.75;43.69;97798.06;4958383;28;20149;-82
2022/02/18 09:31:49;;;;;;;5.57;1.13;;;;;;;13.47;44.14;97801.03;4975844;28;20041;-76
2022/02/18 09:34:15;;;;;;;3.40;1.00;;;;;;;13.20;45.16;97806.28;4975991;28;20026;-81
2022/02/18 09:36:40;;;;;;;3.92;1.05;;;;;;;13.55;43.92;97817.03;4975728;28;20441;-77
2022/02/18 09:39:07;;;;;;;2.92;1.35;;;;;;;13.80;43.50;97844.25;4975682;28;20038;-76
2022/02/18 09:41:36;;;;;;;7.95;1.92;;;;;;;13.60;44.03;97844.03;4975471;28;20035;-76
2022/02/18 09:44:02;;;;;;;5.13;1.60;;;;;;;13.49;44.30;97867.22;4975627;28;20035;-78
2022/02/18 09:46:29;;;;;;;2.00;0.50;;;;;;;13.64;43.89;97887.91;4975495;28;20030;-80
2022/02/18 09:48:55;;;;;;;1.45;1.15;;;;;;;13.71;43.39;97896.06;4975543;28;20026;-77
2022/02/18 09:51:21;;;;;;;1.55;1.00;;;;;;;13.39;43.47;97912.75;4975555;28;20454;-75
2022/02/18 09:53:48;;;;;;;3.67;0.70;;;;;;;13.18;43.98;97918.28;4974292;28;20026;-81
2022/02/18 09:56:16;;;;;;;1.75;0.93;;;;;;;13.58;43.29;97949.84;4974820;28;20113;-81
2022/02/18 09:58:43;;;;;;;2.45;0.70;;;;;;;13.52;43.10;97944.00;4972326;28;20055;-79
2022/02/18 10:01:11;;;;;;;3.10;1.60;;;;;;;13.37;42.41;97982.88;4973817;28;20035;-81
2022/02/18 10:03:38;;;;;;;1.40;0.60;;;;;;;13.52;41.88;98004.34;4973696;28;20035;-80
2022/02/18 10:06:04;;;;;;;1.20;0.95;;;;;;;13.60;41.31;98033.34;4972633;28;20026;-76
2022/02/18 10:08:31;;;;;;;2.15;0.80;;;;;;;13.46;41.61;98047.09;4972224;28;20425;-76
2022/02/18 10:11:06;;;;;;;1.90;0.98;;;;;;;13.79;40.58;98064.22;4974424;28;20073;-78
2022/02/18 10:13:42;;;;;;;1.50;0.77;;;;;;;13.75;40.49;98077.16;4974855;28;20644;-80
2022/02/18 10:16:19;;;;;;;2.03;1.50;;;;;;;13.66;40.73;98091.31;4974850;28;20437;-76
2022/02/18 10:18:52;;;;;;;0.63;0.55;;;;;;;13.78;40.75;98147.72;4974865;28;20073;-81
2022/02/18 10:21:23;;;;;;;1.52;1.08;;;;;;;13.72;40.56;98117.16;4974686;28;20027;-76
2022/02/18 10:23:50;;;;;;;1.15;0.85;;;;;;;13.66;40.55;98140.69;4973990;28;20381;-81
2022/02/18 10:26:16;;;;;;;0.40;0.40;;;;;;;13.53;40.86;98164.25;4974893;28;20456;-82
2022/02/18 10:28:54;;;;;;;0.68;0.40;;;;;;;13.47;41.57;98166.63;4974493;28;20421;-77
2022/02/18 10:31:19;;;;;;;2.22;0.80;;;;;;;14.01;40.28;98196.69;4974356;28;20054;-75
2022/02/18 10:34:00;;;;;;;4.45;1.67;;;;;;;13.57;41.18;98203.44;4974484;28;20069;-76
2022/02/18 10:36:41;;;;;;;1.02;0.52;;;;;;;13.32;41.90;98234.41;4973039;28;20049;-76
2022/02/18 10:39:27;;;;;;;0.55;0.32;;;;;;;13.56;41.65;98254.00;4972309;28;20039;-77
2022/02/18 10:41:57;;;;;;;3.17;1.27;;;;;;;13.80;41.40;98275.16;4974311;28;20064;-77
2022/02/18 10:44:28;;;;;;;0.47;0.30;;;;;;;13.39;41.59;98293.19;4972996;28;20445;-81
2022/02/18 10:46:57;;;;;;;1.00;0.63;;;;;;;13.46;41.63;98315.94;4973270;28;20385;-81
2022/02/18 10:49:26;;;;;;;2.35;1.13;;;;;;;13.60;41.06;98329.66;4973052;28;20068;-76
2022/02/18 10:51:53;;;;;;;1.20;0.20;;;;;;;13.45;41.19;98362.94;4974384;28;20022;-76
2022/02/18 10:54:39;;;;;;;0.32;0.30;;;;;;;13.18;41.62;98378.91;4974208;28;20035;-76
2022/02/18 10:57:25;;;;;;;1.00;0.75;;;;;;;13.59;41.33;98387.66;4974044;28;20035;-76
2022/02/18 10:59:52;;;;;;;0.68;0.38;;;;;;;12.99;42.00;98429.34;4974476;28;20027;-76
2022/02/18 11:02:50;;;;;;;0.82;0.45;;;;;;;13.61;41.12;98434.72;4973665;28;20042;-76
2022/02/18 11:05:23;;;;;;;0.73;0.38;;;;;;;13.75;41.00;98451.22;4974054;28;20656;-76
2022/02/18 11:07:50;;;;;;;0.70;0.40;;;;;;;13.69;41.12;98474.72;4972325;28;20055;-80
2022/02/18 11:10:39;;;;;;;0.77;0.32;;;;;;;13.23;42.29;98501.97;4956593;28;20089;-76
2022/02/18 11:13:05;;;;;;;0.45;0.30;;;;;;;13.39;41.70;98496.16;4974102;28;20034;-75
2022/02/18 11:15:34;;;;;;;0.60;0.25;;;;;;;12.94;42.55;98523.72;4973958;28;20027;-75
2022/02/18 11:18:00;;;;;;;1.80;0.45;;;;;;;13.54;41.28;98512.28;4973664;28;20151;-75
2022/02/18 11:20:26;;;;;;;1.20;0.30;;;;;;;13.44;40.43;98539.66;4956244;28;20495;-74
2022/02/18 11:22:54;;;;;;;2.13;0.63;;;;;;;13.67;39.44;98531.13;4973503;28;20077;-75
2022/02/18 11:25:21;;;;;;;1.60;0.60;;;;;;;14.03;38.22;98573.22;4973373;28;20046;-89
2022/02/18 11:27:47;;;;;;;4.07;1.17;;;;;;;13.68;38.11;98615.84;4973815;28;20042;-74